createdAt,value
2023-10-08T00:01:18.826Z,100047.00
2023-10-08T00:03:52.085Z,100044.00
2023-10-08T00:06:22.743Z,100031.00
2023-10-08T00:08:52.588Z,100043.00
2023-10-08T00:11:20.134Z,100049.00
2023-10-08T00:13:49.843Z,100044.00
2023-10-08T00:16:18.031Z,100037.00
2023-10-08T00:18:53.498Z,100043.00
2023-10-08T00:21:29.232Z,100041.00
2023-10-08T00:24:00.194Z,100041.00
2023-10-08T00:26:31.268Z,100056.00
2023-10-08T00:29:17.214Z,100051.00
2023-10-08T00:31:46.227Z,100055.00
2023-10-08T00:34:14.902Z,100061.00
2023-10-08T00:36:44.585Z,100078.00
2023-10-08T00:39:23.558Z,100067.00
2023-10-08T00:41:59.993Z,100089.00
2023-10-08T00:44:30.961Z,100080.00
2023-10-08T00:47:01.953Z,100088.00
2023-10-08T00:49:44.837Z,100090.00
2023-10-08T00:52:14.697Z,100087.00
2023-10-08T00:54:57.942Z,100092.00
2023-10-08T00:57:31.170Z,100091.00
2023-10-08T01:00:02.022Z,100093.00
2023-10-08T01:02:50.036Z,100094.00
2023-10-08T01:05:24.697Z,100104.00
2023-10-08T01:07:52.491Z,100106.00
2023-10-08T01:10:21.284Z,100110.00
2023-10-08T01:13:06.801Z,100086.00
2023-10-08T01:15:37.502Z,100120.00
2023-10-08T01:18:07.368Z,100122.00
2023-10-08T01:20:34.520Z,100124.00
2023-10-08T01:23:15.437Z,100123.00
2023-10-08T01:25:43.990Z,100126.00
2023-10-08T01:28:27.818Z,100126.00
2023-10-08T01:31:01.395Z,100130.00
2023-10-08T01:33:32.448Z,100131.00
2023-10-08T01:36:03.840Z,100143.00
2023-10-08T01:38:33.510Z,100142.00
2023-10-08T01:41:38.885Z,100144.00
2023-10-08T01:44:09.214Z,100150.00
2023-10-08T01:46:36.196Z,100148.00
2023-10-08T01:49:11.538Z,100148.00
2023-10-08T01:51:40.824Z,100158.00
2023-10-08T01:54:11.747Z,100163.00
2023-10-08T01:56:43.481Z,100156.00
2023-10-08T01:59:16.874Z,100167.00
2023-10-08T02:01:46.628Z,100165.00
2023-10-08T02:04:14.324Z,100164.00
2023-10-08T02:06:41.500Z,100176.00
2023-10-08T02:09:11.461Z,100164.00
2023-10-08T02:11:54.550Z,100182.00
2023-10-08T02:14:23.778Z,100183.00
2023-10-08T02:16:57.255Z,100183.00
2023-10-08T02:19:29.101Z,100173.00
2023-10-08T02:21:59.063Z,100190.00
2023-10-08T02:24:27.253Z,100190.00
2023-10-08T02:26:56.077Z,100193.00
2023-10-08T02:29:28.523Z,100190.00
2023-10-08T02:31:55.633Z,100200.00
2023-10-08T02:34:23.038Z,100202.00
2023-10-08T02:36:50.026Z,100205.00
2023-10-08T02:39:26.153Z,100216.00
2023-10-08T02:41:57.915Z,100220.00
2023-10-08T02:44:25.253Z,100239.00
2023-10-08T02:46:52.874Z,100220.00
2023-10-08T02:49:24.221Z,100227.00
2023-10-08T02:51:55.053Z,100217.00
2023-10-08T02:54:33.553Z,100231.00
2023-10-08T02:57:05.092Z,100248.00
2023-10-08T02:59:41.167Z,100243.00
2023-10-08T03:02:24.418Z,100243.00
2023-10-08T03:04:54.059Z,100241.00
2023-10-08T03:07:33.987Z,100244.00
2023-10-08T03:10:07.756Z,100243.00
2023-10-08T03:12:35.372Z,100234.00
2023-10-08T03:15:15.513Z,100253.00
2023-10-08T03:18:06.157Z,100251.00
2023-10-08T03:20:40.132Z,100259.00
2023-10-08T03:23:14.954Z,100251.00
2023-10-08T03:25:47.162Z,100260.00
2023-10-08T03:28:17.712Z,100262.00
2023-10-08T03:30:57.475Z,100254.00
2023-10-08T03:33:24.903Z,100263.00
2023-10-08T03:35:54.071Z,100252.00
2023-10-08T03:38:45.298Z,100259.00
2023-10-08T03:41:17.680Z,100265.00
2023-10-08T03:43:56.888Z,100264.00
2023-10-08T03:46:27.421Z,100258.00
2023-10-08T03:48:57.657Z,100255.00
2023-10-08T03:51:28.824Z,100269.00
2023-10-08T03:53:59.635Z,100265.00
2023-10-08T03:56:31.026Z,100262.00
2023-10-08T03:59:04.440Z,100275.00
2023-10-08T04:01:33.353Z,100262.00
2023-10-08T04:04:01.965Z,100266.00
2023-10-08T04:06:31.856Z,100281.00
2023-10-08T04:09:10.869Z,100280.00
2023-10-08T04:11:58.099Z,100281.00
2023-10-08T04:14:28.411Z,100285.00
2023-10-08T04:16:55.430Z,100290.00
2023-10-08T04:19:28.387Z,100285.00
2023-10-08T04:21:56.376Z,100299.00
2023-10-08T04:24:36.217Z,100302.00
2023-10-08T04:27:07.229Z,100314.00
2023-10-08T04:29:37.810Z,100306.00
2023-10-08T04:32:09.224Z,100313.00
2023-10-08T04:34:37.161Z,100284.00
2023-10-08T04:37:13.435Z,100318.00
2023-10-08T04:39:48.264Z,100321.00
2023-10-08T04:42:19.450Z,100323.00
2023-10-08T04:44:47.268Z,100326.00
2023-10-08T04:47:32.783Z,100331.00
2023-10-08T04:49:59.925Z,100319.00
2023-10-08T04:52:28.983Z,100324.00
2023-10-08T04:54:57.592Z,100335.00
2023-10-08T04:57:26.792Z,100332.00
2023-10-08T04:59:59.169Z,100336.00
2023-10-08T05:02:37.783Z,100330.00
2023-10-08T05:05:11.057Z,100330.00
2023-10-08T05:07:47.113Z,100325.00
2023-10-08T05:10:33.252Z,100303.00
2023-10-08T05:13:17.074Z,100337.00
2023-10-08T05:16:03.320Z,100309.00
2023-10-08T05:18:59.659Z,100345.00
2023-10-08T05:21:27.126Z,100347.00
2023-10-08T05:24:15.054Z,100347.00
2023-10-08T05:26:45.675Z,100362.00
2023-10-08T05:29:50.780Z,100356.00
2023-10-08T05:32:36.399Z,100373.00
2023-10-08T05:35:21.997Z,100370.00
2023-10-08T05:37:53.422Z,100381.00
2023-10-08T05:40:40.267Z,100392.00
2023-10-08T05:43:23.981Z,100393.00
2023-10-08T05:46:10.904Z,100401.00
2023-10-08T05:48:46.333Z,100399.00
2023-10-08T05:51:35.068Z,100407.00
2023-10-08T05:54:11.744Z,100409.00
2023-10-08T05:56:53.540Z,100412.00
2023-10-08T05:59:28.500Z,100428.00
2023-10-08T06:02:07.188Z,100430.00
2023-10-08T06:04:52.790Z,100425.00
2023-10-08T06:07:34.399Z,100436.00
2023-10-08T06:10:14.211Z,100439.00
2023-10-08T06:12:51.076Z,100416.00
2023-10-08T06:15:28.706Z,100449.00
2023-10-08T06:18:05.607Z,100455.00
2023-10-08T06:20:38.193Z,100460.00
2023-10-08T06:23:08.468Z,100465.00
2023-10-08T06:25:46.142Z,100478.00
2023-10-08T06:28:21.483Z,100471.00
2023-10-08T06:30:49.959Z,100476.00
2023-10-08T06:33:20.387Z,100482.00
2023-10-08T06:36:02.865Z,100478.00
2023-10-08T06:38:34.131Z,100485.00
2023-10-08T06:41:16.288Z,100485.00
2023-10-08T06:44:16.034Z,100488.00
2023-10-08T06:46:43.709Z,100488.00
2023-10-08T06:49:15.307Z,100480.00
2023-10-08T06:51:46.580Z,100503.00
2023-10-08T06:54:17.970Z,100503.00
2023-10-08T06:56:53.428Z,100507.00
2023-10-08T06:59:24.879Z,100512.00
2023-10-08T07:01:52.854Z,100513.00
2023-10-08T07:04:23.162Z,100530.00
2023-10-08T07:06:51.905Z,100525.00
2023-10-08T07:09:28.518Z,100520.00
2023-10-08T07:11:57.678Z,100509.00
2023-10-08T07:14:30.140Z,100531.00
2023-10-08T07:17:00.915Z,100543.00
2023-10-08T07:19:39.559Z,100538.00
2023-10-08T07:22:20.317Z,100537.00
2023-10-08T07:24:51.805Z,100555.00
2023-10-08T07:27:25.310Z,100541.00
2023-10-08T07:29:57.009Z,100549.00
2023-10-08T07:32:26.863Z,100547.00
2023-10-08T07:34:59.339Z,100557.00
2023-10-08T07:37:27.645Z,100553.00
2023-10-08T07:39:56.409Z,100553.00
2023-10-08T07:42:23.536Z,100553.00
2023-10-08T07:44:55.472Z,100566.00
2023-10-08T07:47:22.776Z,100568.00
2023-10-08T07:49:52.103Z,100570.00
2023-10-08T07:52:19.194Z,100575.00
2023-10-08T07:54:46.183Z,100576.00
2023-10-08T07:57:13.984Z,100588.00
2023-10-08T07:59:47.620Z,100574.00
2023-10-08T08:02:19.228Z,100588.00
2023-10-08T08:04:47.920Z,100588.00
2023-10-08T08:07:17.647Z,100589.00
2023-10-08T08:09:53.417Z,100596.00
2023-10-08T08:12:23.565Z,100608.00
2023-10-08T08:14:52.226Z,100636.00
2023-10-08T08:17:20.297Z,100615.00
2023-10-08T08:19:50.899Z,100604.00
2023-10-08T08:22:23.800Z,100610.00
2023-10-08T08:25:28.308Z,100595.00
2023-10-08T08:27:55.560Z,100615.00
2023-10-08T08:30:27.583Z,100610.00
2023-10-08T08:32:57.324Z,100611.00
2023-10-08T08:35:25.337Z,100604.00
2023-10-08T08:37:52.568Z,100613.00
2023-10-08T08:40:23.086Z,100615.00
2023-10-08T08:42:53.582Z,100617.00
2023-10-08T08:45:25.959Z,100627.00
2023-10-08T08:47:54.531Z,100615.00
2023-10-08T08:50:22.627Z,100624.00
2023-10-08T08:52:53.264Z,100618.00
2023-10-08T08:55:21.878Z,100626.00
2023-10-08T08:57:52.447Z,100622.00
2023-10-08T09:00:21.359Z,100634.00
2023-10-08T09:02:50.915Z,100630.00
2023-10-08T09:05:25.983Z,100623.00
2023-10-08T09:08:08.596Z,100613.00
2023-10-08T09:10:39.448Z,100599.00
2023-10-08T09:13:10.459Z,100636.00
2023-10-08T09:15:39.421Z,100638.00
2023-10-08T09:18:07.804Z,100628.00
2023-10-08T09:20:45.373Z,100648.00
2023-10-08T09:23:15.341Z,100638.00
2023-10-08T09:25:45.402Z,100607.00
2023-10-08T09:28:16.436Z,100638.00
2023-10-08T09:30:46.542Z,100644.00
2023-10-08T09:33:15.153Z,100647.00
2023-10-08T09:35:44.834Z,100646.00
2023-10-08T09:38:13.237Z,100656.00
2023-10-08T09:40:45.786Z,100659.00
2023-10-08T09:43:13.155Z,100659.00
2023-10-08T09:45:50.756Z,100686.00
2023-10-08T09:48:20.922Z,100664.00
2023-10-08T09:50:51.561Z,100666.00
2023-10-08T09:53:29.455Z,100676.00
2023-10-08T09:55:57.975Z,100680.00
2023-10-08T09:58:28.065Z,100679.00
2023-10-08T10:00:58.755Z,100690.00
2023-10-08T10:03:28.145Z,100697.00
2023-10-08T10:05:59.927Z,100691.00
2023-10-08T10:08:29.660Z,100707.00
2023-10-08T10:11:01.619Z,100698.00
2023-10-08T10:13:34.646Z,100714.00
2023-10-08T10:16:01.631Z,100711.00
2023-10-08T10:18:31.024Z,100706.00
2023-10-08T10:21:13.740Z,100723.00
2023-10-08T10:23:43.975Z,100720.00
2023-10-08T10:26:31.540Z,100714.00
2023-10-08T10:29:16.562Z,100737.00
2023-10-08T10:31:52.006Z,100739.00
2023-10-08T10:34:28.975Z,100741.00
2023-10-08T10:37:04.316Z,100730.00
2023-10-08T10:39:34.733Z,100746.00
2023-10-08T10:42:04.782Z,100743.00
2023-10-08T10:44:33.774Z,100742.00
2023-10-08T10:47:28.113Z,100755.00
2023-10-08T10:49:56.056Z,100762.00
2023-10-08T10:52:33.539Z,100748.00
2023-10-08T10:55:15.810Z,100758.00
2023-10-08T10:57:57.985Z,100754.00
2023-10-08T11:00:33.295Z,100770.00
2023-10-08T11:03:11.244Z,100762.00
2023-10-08T11:05:40.912Z,100759.00
2023-10-08T11:08:10.035Z,100750.00
2023-10-08T11:10:52.039Z,100752.00
2023-10-08T11:13:22.398Z,100774.00
2023-10-08T11:15:55.420Z,100775.00
2023-10-08T11:18:24.234Z,100768.00
2023-10-08T11:21:02.366Z,100765.00
2023-10-08T11:24:10.097Z,100757.00
2023-10-08T11:26:43.577Z,100788.00
2023-10-08T11:29:16.438Z,100775.00
2023-10-08T11:31:43.884Z,100780.00
2023-10-08T11:34:14.958Z,100781.00
2023-10-08T11:36:54.672Z,100770.00
2023-10-08T11:39:33.366Z,100790.00
2023-10-08T11:42:05.464Z,100778.00
2023-10-08T11:44:37.601Z,100785.00
2023-10-08T11:47:12.541Z,100785.00
2023-10-08T11:49:51.238Z,100772.00
2023-10-08T11:52:22.658Z,100787.00
2023-10-08T11:54:50.517Z,100785.00
2023-10-08T11:57:23.498Z,100795.00
2023-10-08T11:59:56.118Z,100800.00
2023-10-08T12:02:24.102Z,100795.00
2023-10-08T12:04:51.640Z,100798.00
2023-10-08T12:07:19.328Z,100805.00
2023-10-08T12:09:49.764Z,100808.00
2023-10-08T12:12:19.905Z,100814.00
2023-10-08T12:14:48.613Z,100817.00
2023-10-08T12:17:18.249Z,100817.00
2023-10-08T12:19:47.017Z,100823.00
2023-10-08T12:22:19.214Z,100821.00
2023-10-08T12:24:46.267Z,100821.00
2023-10-08T12:27:13.969Z,100830.00
2023-10-08T12:29:41.139Z,100820.00
2023-10-08T12:32:18.586Z,100821.00
2023-10-08T12:34:46.280Z,100831.00
2023-10-08T12:37:17.080Z,100809.00
2023-10-08T12:40:01.615Z,100843.00
2023-10-08T12:42:29.367Z,100829.00
2023-10-08T12:44:58.740Z,100821.00
2023-10-08T12:47:32.619Z,100843.00
2023-10-08T12:49:59.561Z,100843.00
2023-10-08T12:52:29.393Z,100835.00
2023-10-08T12:54:59.384Z,100827.00
2023-10-08T12:57:33.311Z,100831.00
2023-10-08T13:00:01.699Z,100846.00
2023-10-08T13:02:29.878Z,100832.00
2023-10-08T13:04:59.776Z,100837.00
2023-10-08T13:07:27.764Z,100833.00
2023-10-08T13:09:54.780Z,100856.00
2023-10-08T13:12:24.577Z,100849.00
2023-10-08T13:14:51.466Z,100826.00
2023-10-08T13:17:20.944Z,100831.00
2023-10-08T13:19:48.197Z,100830.00
2023-10-08T13:22:21.118Z,100837.00
2023-10-08T13:24:50.234Z,100844.00
2023-10-08T13:27:17.743Z,100837.00
2023-10-08T13:29:45.162Z,100850.00
2023-10-08T13:32:19.131Z,100834.00
2023-10-08T13:34:47.612Z,100851.00
2023-10-08T13:37:18.052Z,100854.00
2023-10-08T13:39:45.145Z,100847.00
2023-10-08T13:42:17.983Z,100850.00
2023-10-08T13:44:46.567Z,100861.00
2023-10-08T13:47:16.468Z,100860.00
2023-10-08T13:49:45.397Z,100853.00
2023-10-08T13:52:12.472Z,100858.00
2023-10-08T13:54:43.252Z,100856.00
2023-10-08T13:57:16.016Z,100860.00
2023-10-08T13:59:44.514Z,100854.00
2023-10-08T14:02:22.749Z,100867.00
2023-10-08T14:04:51.849Z,100864.00
2023-10-08T14:07:19.530Z,100875.00
2023-10-08T14:09:47.690Z,100878.00
2023-10-08T14:12:15.775Z,100870.00
2023-10-08T14:14:47.721Z,100882.00
2023-10-08T14:17:38.072Z,100889.00
2023-10-08T14:20:14.542Z,100882.00
2023-10-08T14:22:42.529Z,100878.00
2023-10-08T14:25:18.450Z,100893.00
2023-10-08T14:27:53.248Z,100890.00
2023-10-08T14:30:25.413Z,100881.00
2023-10-08T14:32:52.737Z,100892.00
2023-10-08T14:35:37.973Z,100902.00
2023-10-08T14:38:23.707Z,100905.00
2023-10-08T14:41:08.913Z,100899.00
2023-10-08T14:43:39.278Z,100914.00
2023-10-08T14:46:10.333Z,100906.00
2023-10-08T14:48:38.030Z,100914.00
2023-10-08T14:51:08.220Z,100925.00
2023-10-08T14:53:35.601Z,100922.00
2023-10-08T14:56:05.393Z,100919.00
2023-10-08T14:58:33.746Z,100928.00
2023-10-08T15:01:00.691Z,100929.00
2023-10-08T15:03:28.873Z,100925.00
2023-10-08T15:05:58.409Z,100932.00
2023-10-08T15:08:25.741Z,100945.00
2023-10-08T15:10:52.837Z,100939.00
2023-10-08T15:13:19.840Z,100944.00
2023-10-08T15:15:47.134Z,100952.00
2023-10-08T15:18:15.886Z,100965.00
2023-10-08T15:20:44.368Z,100965.00
2023-10-08T15:23:14.597Z,100988.00
2023-10-08T15:25:41.967Z,100973.00
2023-10-08T15:28:09.027Z,100974.00
2023-10-08T15:30:36.953Z,100970.00
2023-10-08T15:33:04.188Z,100958.00
2023-10-08T15:35:31.250Z,100955.00
2023-10-08T15:37:58.133Z,100936.00
2023-10-08T15:40:25.269Z,100958.00
2023-10-08T15:42:56.118Z,100950.00
2023-10-08T15:45:26.041Z,100952.00
2023-10-08T15:47:54.237Z,100958.00
2023-10-08T15:50:25.750Z,100953.00
2023-10-08T15:52:54.631Z,100966.00
2023-10-08T15:55:24.380Z,100971.00
2023-10-08T15:57:52.582Z,100981.00
2023-10-08T16:00:20.496Z,100980.00
2023-10-08T16:02:50.132Z,101001.00
2023-10-08T16:05:19.041Z,100996.00
2023-10-08T16:07:47.524Z,100985.00
2023-10-08T16:10:14.807Z,100997.00
2023-10-08T16:12:42.038Z,101004.00
2023-10-08T16:15:10.426Z,101001.00
2023-10-08T16:17:41.689Z,100999.00
2023-10-08T16:20:18.605Z,101001.00
2023-10-08T16:22:48.525Z,101013.00
2023-10-08T16:25:18.499Z,101019.00
2023-10-08T16:27:50.077Z,101021.00
2023-10-08T16:30:29.527Z,101013.00
2023-10-08T16:33:01.223Z,101033.00
2023-10-08T16:35:28.804Z,101037.00
2023-10-08T16:37:58.486Z,101039.00
2023-10-08T16:40:27.223Z,101040.00
2023-10-08T16:43:07.740Z,101037.00
2023-10-08T16:45:35.217Z,101044.00
2023-10-08T16:48:02.281Z,101055.00
2023-10-08T16:50:29.312Z,101041.00
2023-10-08T16:52:59.217Z,101035.00
2023-10-08T16:55:28.821Z,101038.00
2023-10-08T16:57:57.125Z,101034.00
2023-10-08T17:00:27.167Z,101042.00
2023-10-08T17:02:54.269Z,101036.00
2023-10-08T17:05:21.643Z,101039.00
2023-10-08T17:07:48.982Z,101041.00
2023-10-08T17:10:16.543Z,101052.00
2023-10-08T17:12:44.199Z,101048.00
2023-10-08T17:15:13.915Z,101045.00
2023-10-08T17:17:41.686Z,101037.00
2023-10-08T17:20:10.815Z,101046.00
2023-10-08T17:22:38.871Z,101051.00
2023-10-08T17:25:07.556Z,101048.00
2023-10-08T17:27:38.960Z,101054.00
2023-10-08T17:30:07.463Z,101032.00
2023-10-08T17:32:36.533Z,101044.00
2023-10-08T17:35:07.716Z,101042.00
2023-10-08T17:37:38.957Z,101040.00
2023-10-08T17:40:12.567Z,101032.00
2023-10-08T17:42:43.112Z,101041.00
2023-10-08T17:45:15.959Z,101038.00
2023-10-08T17:47:43.711Z,101045.00
2023-10-08T17:50:16.545Z,101046.00
2023-10-08T17:52:45.036Z,101049.00
2023-10-08T17:55:14.237Z,101049.00
2023-10-08T17:57:44.851Z,101046.00
2023-10-08T18:00:13.037Z,101041.00
2023-10-08T18:02:43.631Z,101036.00
2023-10-08T18:05:18.178Z,101034.00
2023-10-08T18:07:51.354Z,101038.00
2023-10-08T18:10:26.315Z,101030.00
2023-10-08T18:12:54.300Z,101031.00
2023-10-08T18:15:24.799Z,101031.00
2023-10-08T18:17:56.238Z,101036.00
2023-10-08T18:20:35.281Z,101031.00
2023-10-08T18:23:03.495Z,101038.00
2023-10-08T18:25:33.629Z,101032.00
2023-10-08T18:28:00.752Z,101023.00
2023-10-08T18:30:27.901Z,101031.00
2023-10-08T18:32:57.400Z,101032.00
2023-10-08T18:35:24.559Z,101034.00
2023-10-08T18:37:56.902Z,101031.00
2023-10-08T18:40:27.198Z,101027.00
2023-10-08T18:42:54.790Z,101031.00
2023-10-08T18:45:22.992Z,101024.00
2023-10-08T18:47:50.657Z,101038.00
2023-10-08T18:50:18.977Z,101035.00
2023-10-08T18:52:46.436Z,101029.00
2023-10-08T18:55:14.532Z,101025.00
2023-10-08T18:57:43.215Z,101030.00
2023-10-08T19:00:11.653Z,101021.00
2023-10-08T19:02:41.622Z,101028.00
2023-10-08T19:05:13.011Z,101022.00
2023-10-08T19:07:45.382Z,101029.00
2023-10-08T19:10:16.711Z,101018.00
2023-10-08T19:12:45.483Z,101034.00
2023-10-08T19:15:18.423Z,101033.00
2023-10-08T19:17:50.261Z,101028.00
2023-10-08T19:20:18.090Z,101036.00
2023-10-08T19:22:47.623Z,101029.00
2023-10-08T19:25:18.100Z,101025.00
2023-10-08T19:27:46.824Z,101031.00
2023-10-08T19:30:14.664Z,101024.00
2023-10-08T19:32:41.767Z,101025.00
2023-10-08T19:35:11.634Z,101039.00
2023-10-08T19:37:39.103Z,101030.00
2023-10-08T19:40:11.420Z,101030.00
2023-10-08T19:42:40.358Z,101033.00
2023-10-08T19:45:18.741Z,101040.00
2023-10-08T19:47:47.547Z,101048.00
2023-10-08T19:50:21.011Z,101049.00
2023-10-08T19:52:50.682Z,101047.00
2023-10-08T19:55:18.186Z,101044.00
2023-10-08T19:57:46.037Z,101040.00
2023-10-08T20:00:17.935Z,101041.00
2023-10-08T20:02:46.276Z,101012.00
2023-10-08T20:05:15.542Z,101047.00
2023-10-08T20:07:44.611Z,101044.00
2023-10-08T20:10:22.477Z,101037.00
2023-10-08T20:12:51.472Z,101034.00
2023-10-08T20:15:19.644Z,101032.00
2023-10-08T20:17:47.655Z,101027.00
2023-10-08T20:20:19.324Z,101024.00
2023-10-08T20:22:50.239Z,101042.00
2023-10-08T20:25:19.999Z,101026.00
2023-10-08T20:27:47.178Z,101027.00
2023-10-08T20:30:21.671Z,101024.00
2023-10-08T20:32:53.076Z,101034.00
2023-10-08T20:35:21.505Z,101037.00
2023-10-08T20:37:52.565Z,101037.00
2023-10-08T20:40:26.389Z,101008.00
2023-10-08T20:42:54.406Z,101031.00
2023-10-08T20:45:26.805Z,101007.00
2023-10-08T20:47:58.762Z,101027.00
2023-10-08T20:50:33.321Z,101026.00
2023-10-08T20:53:03.288Z,101033.00
2023-10-08T20:55:41.822Z,101020.00
2023-10-08T20:58:09.771Z,101032.00
2023-10-08T21:00:43.323Z,101024.00
2023-10-08T21:03:14.840Z,101026.00
2023-10-08T21:05:43.937Z,101036.00
2023-10-08T21:08:13.260Z,101035.00
2023-10-08T21:10:59.983Z,101044.00
2023-10-08T21:13:31.445Z,101049.00
2023-10-08T21:16:01.596Z,101036.00
2023-10-08T21:18:31.198Z,101035.00
2023-10-08T21:20:58.803Z,101034.00
2023-10-08T21:23:25.842Z,101027.00
2023-10-08T21:25:53.138Z,101021.00
2023-10-08T21:28:20.118Z,101018.00
2023-10-08T21:30:47.192Z,101027.00
2023-10-08T21:33:14.486Z,101017.00
2023-10-08T21:35:42.653Z,101018.00
2023-10-08T21:38:11.295Z,101018.00
2023-10-08T21:40:39.297Z,101030.00
2023-10-08T21:43:08.618Z,101028.00
2023-10-08T21:45:36.357Z,101027.00
2023-10-08T21:48:04.040Z,101026.00
2023-10-08T21:50:32.017Z,100992.00
2023-10-08T21:52:59.375Z,101004.00
2023-10-08T21:55:26.566Z,101031.00
2023-10-08T21:57:54.170Z,101026.00
2023-10-08T22:00:25.078Z,101010.00
2023-10-08T22:02:59.388Z,101011.00
2023-10-08T22:05:32.296Z,101001.00
2023-10-08T22:08:04.807Z,101002.00
2023-10-08T22:10:34.807Z,101004.00
2023-10-08T22:13:10.633Z,100994.00
2023-10-08T22:15:56.799Z,101008.00
2023-10-08T22:18:28.629Z,100997.00
2023-10-08T22:20:57.030Z,100998.00
2023-10-08T22:23:26.215Z,100990.00
2023-10-08T22:25:56.397Z,100989.00
2023-10-08T22:28:25.161Z,100987.00
2023-10-08T22:30:56.208Z,100982.00
2023-10-08T22:33:34.596Z,100946.00
2023-10-08T22:36:12.476Z,100994.00
2023-10-08T22:38:39.792Z,100989.00
2023-10-08T22:41:06.674Z,100980.00
2023-10-08T22:43:37.153Z,100971.00
2023-10-08T22:46:07.963Z,100974.00
2023-10-08T22:48:37.252Z,100959.00
2023-10-08T22:51:11.033Z,100959.00
2023-10-08T22:53:44.997Z,100961.00
2023-10-08T22:56:13.565Z,100957.00
2023-10-08T22:58:40.984Z,100949.00
2023-10-08T23:01:19.613Z,100944.00
2023-10-08T23:03:53.121Z,100821.00
2023-10-08T23:06:22.998Z,100933.00
2023-10-08T23:08:50.808Z,100937.00
2023-10-08T23:11:18.167Z,100936.00
2023-10-08T23:13:46.256Z,100920.00
2023-10-08T23:16:20.390Z,100914.00
2023-10-08T23:18:52.026Z,100926.00
2023-10-08T23:21:21.818Z,100926.00
2023-10-08T23:23:49.552Z,100923.00
2023-10-08T23:26:19.935Z,100933.00
2023-10-08T23:28:47.044Z,100926.00
2023-10-08T23:31:14.780Z,100908.00
2023-10-08T23:33:48.207Z,100918.00
2023-10-08T23:36:17.837Z,100915.00
2023-10-08T23:38:53.740Z,100906.00
2023-10-08T23:41:33.192Z,100906.00
2023-10-08T23:44:11.399Z,100905.00
2023-10-08T23:46:44.228Z,100893.00
2023-10-08T23:49:17.823Z,100886.00
2023-10-08T23:51:52.826Z,100887.00
2023-10-08T23:54:28.818Z,100883.00
2023-10-08T23:57:00.723Z,100795.00
2023-10-08T23:59:42.801Z,100879.00
